sensor_id;sensor_type;location;lat;lon;timestamp;P1;durP1;ratioP1;P2;durP2;ratioP2
20283;SDS011;10301;50.832;4.080;2023-10-08T00:01:07;7.35;;;2.78;;
20283;SDS011;10301;50.832;4.080;2023-10-08T00:03:38;5.78;;;2.50;;
20283;SDS011;10301;50.832;4.080;2023-10-08T00:06:05;11.48;;;2.97;;
20283;SDS011;10301;50.832;4.080;2023-10-08T00:08:32;7.47;;;2.92;;
20283;SDS011;10301;50.832;4.080;2023-10-08T00:10:58;8.52;;;3.10;;
20283;SDS011;10301;50.832;4.080;2023-10-08T00:13:31;7.53;;;3.28;;
20283;SDS011;10301;50.832;4.080;2023-10-08T00:16:04;6.68;;;3.00;;
20283;SDS011;10301;50.832;4.080;2023-10-08T00:18:34;7.07;;;3.15;;
20283;SDS011;10301;50.832;4.080;2023-10-08T00:21:00;7.13;;;3.10;;
20283;SDS011;10301;50.832;4.080;2023-10-08T00:23:48;6.18;;;2.70;;
20283;SDS011;10301;50.832;4.080;2023-10-08T00:26:23;6.38;;;3.00;;
20283;SDS011;10301;50.832;4.080;2023-10-08T00:29:04;10.88;;;3.28;;
20283;SDS011;10301;50.832;4.080;2023-10-08T00:31:41;7.70;;;3.20;;
20283;SDS011;10301;50.832;4.080;2023-10-08T00:34:13;8.68;;;3.50;;
20283;SDS011;10301;50.832;4.080;2023-10-08T00:36:44;8.02;;;3.25;;
20283;SDS011;10301;50.832;4.080;2023-10-08T00:39:11;5.85;;;2.78;;
20283;SDS011;10301;50.832;4.080;2023-10-08T00:41:47;7.80;;;3.53;;
20283;SDS011;10301;50.832;4.080;2023-10-08T00:44:14;7.90;;;2.85;;
20283;SDS011;10301;50.832;4.080;2023-10-08T00:46:47;9.85;;;3.05;;
20283;SDS011;10301;50.832;4.080;2023-10-08T00:49:13;10.07;;;3.42;;
20283;SDS011;10301;50.832;4.080;2023-10-08T00:51:47;11.65;;;3.25;;
20283;SDS011;10301;50.832;4.080;2023-10-08T00:54:26;9.38;;;3.60;;
20283;SDS011;10301;50.832;4.080;2023-10-08T00:56:53;9.05;;;3.67;;
20283;SDS011;10301;50.832;4.080;2023-10-08T00:59:25;8.52;;;3.10;;
20283;SDS011;10301;50.832;4.080;2023-10-08T01:01:52;7.57;;;2.97;;
20283;SDS011;10301;50.832;4.080;2023-10-08T01:04:25;7.03;;;3.35;;
20283;SDS011;10301;50.832;4.080;2023-10-08T01:06:55;8.82;;;3.70;;
20283;SDS011;10301;50.832;4.080;2023-10-08T01:09:26;9.13;;;3.60;;
20283;SDS011;10301;50.832;4.080;2023-10-08T01:12:12;6.93;;;3.10;;
20283;SDS011;10301;50.832;4.080;2023-10-08T01:14:59;7.90;;;3.53;;
20283;SDS011;10301;50.832;4.080;2023-10-08T01:17:43;8.00;;;3.17;;
20283;SDS011;10301;50.832;4.080;2023-10-08T01:20:17;7.35;;;3.05;;
20283;SDS011;10301;50.832;4.080;2023-10-08T01:23:10;7.65;;;3.22;;
20283;SDS011;10301;50.832;4.080;2023-10-08T01:25:38;8.80;;;3.28;;
20283;SDS011;10301;50.832;4.080;2023-10-08T01:28:05;8.80;;;3.25;;
20283;SDS011;10301;50.832;4.080;2023-10-08T01:30:42;11.05;;;3.78;;
20283;SDS011;10301;50.832;4.080;2023-10-08T01:33:12;6.97;;;3.30;;
20283;SDS011;10301;50.832;4.080;2023-10-08T01:35:46;9.50;;;3.55;;
20283;SDS011;10301;50.832;4.080;2023-10-08T01:38:13;6.22;;;2.80;;
20283;SDS011;10301;50.832;4.080;2023-10-08T01:40:42;8.32;;;3.30;;
20283;SDS011;10301;50.832;4.080;2023-10-08T01:43:08;9.85;;;3.80;;
20283;SDS011;10301;50.832;4.080;2023-10-08T01:45:36;8.07;;;4.05;;
20283;SDS011;10301;50.832;4.080;2023-10-08T01:48:06;8.98;;;3.33;;
20283;SDS011;10301;50.832;4.080;2023-10-08T01:50:34;7.32;;;3.22;;
20283;SDS011;10301;50.832;4.080;2023-10-08T01:53:00;9.70;;;3.38;;
20283;SDS011;10301;50.832;4.080;2023-10-08T01:55:26;10.98;;;3.95;;
20283;SDS011;10301;50.832;4.080;2023-10-08T01:57:52;10.48;;;3.65;;
20283;SDS011;10301;50.832;4.080;2023-10-08T02:00:18;10.13;;;4.03;;
20283;SDS011;10301;50.832;4.080;2023-10-08T02:02:46;10.32;;;3.40;;
20283;SDS011;10301;50.832;4.080;2023-10-08T02:05:12;8.43;;;3.72;;
20283;SDS011;10301;50.832;4.080;2023-10-08T02:07:41;7.78;;;3.22;;
20283;SDS011;10301;50.832;4.080;2023-10-08T02:10:09;8.23;;;3.35;;
20283;SDS011;10301;50.832;4.080;2023-10-08T02:12:36;8.45;;;3.70;;
20283;SDS011;10301;50.832;4.080;2023-10-08T02:15:08;9.05;;;3.67;;
20283;SDS011;10301;50.832;4.080;2023-10-08T02:17:36;10.52;;;3.72;;
20283;SDS011;10301;50.832;4.080;2023-10-08T02:20:03;7.90;;;3.50;;
20283;SDS011;10301;50.832;4.080;2023-10-08T02:22:30;8.25;;;3.80;;
20283;SDS011;10301;50.832;4.080;2023-10-08T02:24:58;8.40;;;3.53;;
20283;SDS011;10301;50.832;4.080;2023-10-08T02:27:27;9.32;;;3.40;;
20283;SDS011;10301;50.832;4.080;2023-10-08T02:29:53;8.23;;;3.50;;
20283;SDS011;10301;50.832;4.080;2023-10-08T02:32:19;8.73;;;3.83;;
20283;SDS011;10301;50.832;4.080;2023-10-08T02:34:47;7.90;;;4.00;;
20283;SDS011;10301;50.832;4.080;2023-10-08T02:37:14;9.88;;;3.63;;
20283;SDS011;10301;50.832;4.080;2023-10-08T02:39:40;8.35;;;3.60;;
20283;SDS011;10301;50.832;4.080;2023-10-08T02:42:06;8.63;;;3.83;;
20283;SDS011;10301;50.832;4.080;2023-10-08T02:44:35;10.00;;;4.20;;
20283;SDS011;10301;50.832;4.080;2023-10-08T02:47:06;12.20;;;4.13;;
20283;SDS011;10301;50.832;4.080;2023-10-08T02:49:41;6.88;;;3.33;;
20283;SDS011;10301;50.832;4.080;2023-10-08T02:52:07;9.77;;;3.78;;
20283;SDS011;10301;50.832;4.080;2023-10-08T02:54:36;9.30;;;3.85;;
20283;SDS011;10301;50.832;4.080;2023-10-08T02:57:02;9.90;;;3.78;;
20283;SDS011;10301;50.832;4.080;2023-10-08T02:59:32;8.15;;;3.65;;
20283;SDS011;10301;50.832;4.080;2023-10-08T03:02:10;7.70;;;3.30;;
20283;SDS011;10301;50.832;4.080;2023-10-08T03:04:54;9.27;;;3.53;;
20283;SDS011;10301;50.832;4.080;2023-10-08T03:07:20;8.25;;;3.60;;
20283;SDS011;10301;50.832;4.080;2023-10-08T03:09:46;7.20;;;3.67;;
20283;SDS011;10301;50.832;4.080;2023-10-08T03:12:15;8.00;;;3.83;;
20283;SDS011;10301;50.832;4.080;2023-10-08T03:14:42;6.88;;;3.50;;
20283;SDS011;10301;50.832;4.080;2023-10-08T03:17:29;8.77;;;4.00;;
20283;SDS011;10301;50.832;4.080;2023-10-08T03:19:55;12.10;;;4.30;;
20283;SDS011;10301;50.832;4.080;2023-10-08T03:22:47;10.65;;;3.83;;
20283;SDS011;10301;50.832;4.080;2023-10-08T03:25:13;7.60;;;3.63;;
20283;SDS011;10301;50.832;4.080;2023-10-08T03:27:42;11.82;;;4.43;;
20283;SDS011;10301;50.832;4.080;2023-10-08T03:30:08;10.13;;;3.72;;
20283;SDS011;10301;50.832;4.080;2023-10-08T03:32:42;9.45;;;3.88;;
20283;SDS011;10301;50.832;4.080;2023-10-08T03:35:19;9.15;;;4.00;;
20283;SDS011;10301;50.832;4.080;2023-10-08T03:37:52;8.88;;;3.70;;
20283;SDS011;10301;50.832;4.080;2023-10-08T03:40:19;10.68;;;4.13;;
20283;SDS011;10301;50.832;4.080;2023-10-08T03:42:48;10.35;;;3.80;;
20283;SDS011;10301;50.832;4.080;2023-10-08T03:45:14;10.88;;;4.20;;
20283;SDS011;10301;50.832;4.080;2023-10-08T03:47:47;8.05;;;3.92;;
20283;SDS011;10301;50.832;4.080;2023-10-08T03:50:28;9.60;;;4.68;;
20283;SDS011;10301;50.832;4.080;2023-10-08T03:53:07;9.38;;;4.07;;
20283;SDS011;10301;50.832;4.080;2023-10-08T03:55:41;9.18;;;3.97;;
20283;SDS011;10301;50.832;4.080;2023-10-08T03:58:07;9.25;;;4.03;;
20283;SDS011;10301;50.832;4.080;2023-10-08T04:00:37;10.57;;;4.28;;
20283;SDS011;10301;50.832;4.080;2023-10-08T04:03:07;10.48;;;4.07;;
20283;SDS011;10301;50.832;4.080;2023-10-08T04:05:36;8.48;;;3.60;;
20283;SDS011;10301;50.832;4.080;2023-10-08T04:08:09;10.55;;;4.10;;
20283;SDS011;10301;50.832;4.080;2023-10-08T04:11:07;9.38;;;3.97;;
20283;SDS011;10301;50.832;4.080;2023-10-08T04:13:55;9.85;;;3.60;;
20283;SDS011;10301;50.832;4.080;2023-10-08T04:16:24;10.48;;;3.95;;
20283;SDS011;10301;50.832;4.080;2023-10-08T04:18:52;9.88;;;3.83;;
20283;SDS011;10301;50.832;4.080;2023-10-08T04:21:21;12.13;;;4.00;;
20283;SDS011;10301;50.832;4.080;2023-10-08T04:23:47;9.77;;;4.00;;
20283;SDS011;10301;50.832;4.080;2023-10-08T04:26:17;10.38;;;4.03;;
20283;SDS011;10301;50.832;4.080;2023-10-08T04:28:48;8.98;;;4.05;;
20283;SDS011;10301;50.832;4.080;2023-10-08T04:31:22;23.65;;;13.50;;
20283;SDS011;10301;50.832;4.080;2023-10-08T04:33:53;21.48;;;9.20;;
20283;SDS011;10301;50.832;4.080;2023-10-08T04:36:20;11.70;;;4.65;;
20283;SDS011;10301;50.832;4.080;2023-10-08T04:38:46;12.75;;;4.63;;
20283;SDS011;10301;50.832;4.080;2023-10-08T04:41:19;8.05;;;4.45;;
20283;SDS011;10301;50.832;4.080;2023-10-08T04:43:47;7.30;;;4.10;;
20283;SDS011;10301;50.832;4.080;2023-10-08T04:46:14;9.85;;;4.38;;
20283;SDS011;10301;50.832;4.080;2023-10-08T04:48:58;9.52;;;4.25;;
20283;SDS011;10301;50.832;4.080;2023-10-08T04:51:30;9.57;;;4.13;;
20283;SDS011;10301;50.832;4.080;2023-10-08T04:54:00;10.68;;;4.35;;
20283;SDS011;10301;50.832;4.080;2023-10-08T04:56:29;14.23;;;4.40;;
20283;SDS011;10301;50.832;4.080;2023-10-08T04:58:58;8.27;;;3.95;;
20283;SDS011;10301;50.832;4.080;2023-10-08T05:01:23;9.48;;;3.97;;
20283;SDS011;10301;50.832;4.080;2023-10-08T05:04:05;10.43;;;4.68;;
20283;SDS011;10301;50.832;4.080;2023-10-08T05:06:31;10.02;;;4.03;;
20283;SDS011;10301;50.832;4.080;2023-10-08T05:09:02;7.55;;;3.92;;
20283;SDS011;10301;50.832;4.080;2023-10-08T05:11:44;8.60;;;4.13;;
20283;SDS011;10301;50.832;4.080;2023-10-08T05:14:17;10.77;;;4.68;;
20283;SDS011;10301;50.832;4.080;2023-10-08T05:17:07;8.63;;;4.10;;
20283;SDS011;10301;50.832;4.080;2023-10-08T05:19:47;8.50;;;4.38;;
20283;SDS011;10301;50.832;4.080;2023-10-08T05:22:23;8.45;;;4.25;;
20283;SDS011;10301;50.832;4.080;2023-10-08T05:24:57;9.60;;;4.25;;
20283;SDS011;10301;50.832;4.080;2023-10-08T05:27:44;7.97;;;3.88;;
20283;SDS011;10301;50.832;4.080;2023-10-08T05:30:17;12.30;;;5.13;;
20283;SDS011;10301;50.832;4.080;2023-10-08T05:32:53;10.82;;;4.82;;
20283;SDS011;10301;50.832;4.080;2023-10-08T05:35:35;10.75;;;4.40;;
20283;SDS011;10301;50.832;4.080;2023-10-08T05:38:07;10.27;;;4.22;;
20283;SDS011;10301;50.832;4.080;2023-10-08T05:41:03;10.88;;;4.40;;
20283;SDS011;10301;50.832;4.080;2023-10-08T05:43:29;12.90;;;4.85;;
20283;SDS011;10301;50.832;4.080;2023-10-08T05:46:23;8.98;;;4.53;;
20283;SDS011;10301;50.832;4.080;2023-10-08T05:51:49;12.18;;;4.45;;
20283;SDS011;10301;50.832;4.080;2023-10-08T05:54:24;6.97;;;4.20;;
20283;SDS011;10301;50.832;4.080;2023-10-08T05:57:00;9.05;;;4.57;;
20283;SDS011;10301;50.832;4.080;2023-10-08T05:59:36;11.27;;;4.93;;
20283;SDS011;10301;50.832;4.080;2023-10-08T06:02:30;10.98;;;4.90;;
20283;SDS011;10301;50.832;4.080;2023-10-08T06:07:42;10.20;;;4.25;;
20283;SDS011;10301;50.832;4.080;2023-10-08T06:10:28;12.05;;;4.85;;
20283;SDS011;10301;50.832;4.080;2023-10-08T06:12:54;14.98;;;5.35;;
20283;SDS011;10301;50.832;4.080;2023-10-08T06:15:38;11.98;;;5.00;;
20283;SDS011;10301;50.832;4.080;2023-10-08T06:18:21;9.70;;;4.53;;
20283;SDS011;10301;50.832;4.080;2023-10-08T06:20:51;10.68;;;4.65;;
20283;SDS011;10301;50.832;4.080;2023-10-08T06:23:23;10.80;;;4.72;;
20283;SDS011;10301;50.832;4.080;2023-10-08T06:25:50;12.30;;;4.60;;
20283;SDS011;10301;50.832;4.080;2023-10-08T06:28:36;14.75;;;5.10;;
20283;SDS011;10301;50.832;4.080;2023-10-08T06:31:03;11.13;;;5.05;;
20283;SDS011;10301;50.832;4.080;2023-10-08T06:33:36;16.13;;;5.80;;
20283;SDS011;10301;50.832;4.080;2023-10-08T06:36:04;17.45;;;5.18;;
20283;SDS011;10301;50.832;4.080;2023-10-08T06:38:36;12.75;;;6.15;;
20283;SDS011;10301;50.832;4.080;2023-10-08T06:41:04;13.25;;;4.78;;
20283;SDS011;10301;50.832;4.080;2023-10-08T06:43:50;13.15;;;5.25;;
20283;SDS011;10301;50.832;4.080;2023-10-08T06:46:27;16.50;;;4.95;;
20283;SDS011;10301;50.832;4.080;2023-10-08T06:48:57;19.45;;;5.22;;
20283;SDS011;10301;50.832;4.080;2023-10-08T06:51:36;13.40;;;5.20;;
20283;SDS011;10301;50.832;4.080;2023-10-08T06:54:02;10.40;;;4.88;;
20283;SDS011;10301;50.832;4.080;2023-10-08T06:56:28;10.98;;;5.70;;
20283;SDS011;10301;50.832;4.080;2023-10-08T06:58:56;14.23;;;5.00;;
20283;SDS011;10301;50.832;4.080;2023-10-08T07:01:24;17.65;;;5.65;;
20283;SDS011;10301;50.832;4.080;2023-10-08T07:03:56;11.55;;;5.55;;
20283;SDS011;10301;50.832;4.080;2023-10-08T07:06:28;15.98;;;5.75;;
20283;SDS011;10301;50.832;4.080;2023-10-08T07:08:59;12.68;;;5.18;;
20283;SDS011;10301;50.832;4.080;2023-10-08T07:11:30;15.07;;;5.50;;
20283;SDS011;10301;50.832;4.080;2023-10-08T07:14:03;14.27;;;5.00;;
20283;SDS011;10301;50.832;4.080;2023-10-08T07:16:29;13.20;;;5.30;;
20283;SDS011;10301;50.832;4.080;2023-10-08T07:18:56;12.73;;;4.88;;
20283;SDS011;10301;50.832;4.080;2023-10-08T07:21:40;12.15;;;5.40;;
20283;SDS011;10301;50.832;4.080;2023-10-08T07:24:15;14.15;;;5.47;;
20283;SDS011;10301;50.832;4.080;2023-10-08T07:26:42;11.63;;;5.45;;
20283;SDS011;10301;50.832;4.080;2023-10-08T07:29:15;13.02;;;4.93;;
20283;SDS011;10301;50.832;4.080;2023-10-08T07:31:44;12.70;;;5.38;;
20283;SDS011;10301;50.832;4.080;2023-10-08T07:34:17;9.50;;;5.30;;
20283;SDS011;10301;50.832;4.080;2023-10-08T07:36:46;9.88;;;5.15;;
20283;SDS011;10301;50.832;4.080;2023-10-08T07:39:13;13.90;;;5.90;;
20283;SDS011;10301;50.832;4.080;2023-10-08T07:41:58;10.38;;;5.13;;
20283;SDS011;10301;50.832;4.080;2023-10-08T07:44:30;11.48;;;5.38;;
20283;SDS011;10301;50.832;4.080;2023-10-08T07:46:56;11.43;;;4.72;;
20283;SDS011;10301;50.832;4.080;2023-10-08T07:49:25;12.32;;;5.40;;
20283;SDS011;10301;50.832;4.080;2023-10-08T07:51:55;11.48;;;5.03;;
20283;SDS011;10301;50.832;4.080;2023-10-08T07:54:22;11.18;;;5.35;;
20283;SDS011;10301;50.832;4.080;2023-10-08T07:56:49;10.02;;;5.00;;
20283;SDS011;10301;50.832;4.080;2023-10-08T07:59:24;10.88;;;5.07;;
20283;SDS011;10301;50.832;4.080;2023-10-08T08:01:50;11.05;;;5.18;;
20283;SDS011;10301;50.832;4.080;2023-10-08T08:04:18;16.20;;;5.25;;
20283;SDS011;10301;50.832;4.080;2023-10-08T08:06:50;13.70;;;5.20;;
20283;SDS011;10301;50.832;4.080;2023-10-08T08:09:17;15.23;;;5.70;;
20283;SDS011;10301;50.832;4.080;2023-10-08T08:11:45;10.13;;;5.20;;
20283;SDS011;10301;50.832;4.080;2023-10-08T08:14:12;11.75;;;5.43;;
20283;SDS011;10301;50.832;4.080;2023-10-08T08:16:42;14.70;;;5.40;;
20283;SDS011;10301;50.832;4.080;2023-10-08T08:19:11;13.88;;;5.75;;
20283;SDS011;10301;50.832;4.080;2023-10-08T08:21:38;12.43;;;6.05;;
20283;SDS011;10301;50.832;4.080;2023-10-08T08:24:10;12.32;;;5.90;;
20283;SDS011;10301;50.832;4.080;2023-10-08T08:26:46;10.30;;;5.80;;
20283;SDS011;10301;50.832;4.080;2023-10-08T08:29:26;11.38;;;5.35;;
20283;SDS011;10301;50.832;4.080;2023-10-08T08:31:54;12.95;;;6.20;;
20283;SDS011;10301;50.832;4.080;2023-10-08T08:34:22;12.65;;;5.85;;
20283;SDS011;10301;50.832;4.080;2023-10-08T08:36:49;11.77;;;5.43;;
20283;SDS011;10301;50.832;4.080;2023-10-08T08:39:15;14.18;;;6.10;;
20283;SDS011;10301;50.832;4.080;2023-10-08T08:42:00;10.20;;;5.30;;
20283;SDS011;10301;50.832;4.080;2023-10-08T08:44:29;10.90;;;5.85;;
20283;SDS011;10301;50.832;4.080;2023-10-08T08:47:00;10.95;;;5.88;;
20283;SDS011;10301;50.832;4.080;2023-10-08T08:49:33;13.93;;;6.07;;
20283;SDS011;10301;50.832;4.080;2023-10-08T08:52:04;13.00;;;6.20;;
20283;SDS011;10301;50.832;4.080;2023-10-08T08:54:30;14.13;;;5.90;;
20283;SDS011;10301;50.832;4.080;2023-10-08T08:56:59;12.05;;;5.72;;
20283;SDS011;10301;50.832;4.080;2023-10-08T08:59:29;12.63;;;5.35;;
20283;SDS011;10301;50.832;4.080;2023-10-08T09:01:59;13.98;;;5.63;;
20283;SDS011;10301;50.832;4.080;2023-10-08T09:04:29;12.20;;;6.40;;
20283;SDS011;10301;50.832;4.080;2023-10-08T09:06:56;14.85;;;6.18;;
20283;SDS011;10301;50.832;4.080;2023-10-08T09:09:22;13.48;;;6.68;;
20283;SDS011;10301;50.832;4.080;2023-10-08T09:11:56;11.45;;;5.97;;
20283;SDS011;10301;50.832;4.080;2023-10-08T09:14:23;13.90;;;6.47;;
20283;SDS011;10301;50.832;4.080;2023-10-08T09:16:57;13.10;;;6.30;;
20283;SDS011;10301;50.832;4.080;2023-10-08T09:19:24;12.18;;;5.65;;
20283;SDS011;10301;50.832;4.080;2023-10-08T09:22:01;11.82;;;6.75;;
20283;SDS011;10301;50.832;4.080;2023-10-08T09:24:35;13.23;;;6.75;;
20283;SDS011;10301;50.832;4.080;2023-10-08T09:27:03;14.13;;;6.35;;
20283;SDS011;10301;50.832;4.080;2023-10-08T09:29:36;16.35;;;6.45;;
20283;SDS011;10301;50.832;4.080;2023-10-08T09:32:04;17.10;;;6.80;;
20283;SDS011;10301;50.832;4.080;2023-10-08T09:34:32;17.13;;;6.93;;
20283;SDS011;10301;50.832;4.080;2023-10-08T09:36:59;11.95;;;6.35;;
20283;SDS011;10301;50.832;4.080;2023-10-08T09:39:26;16.90;;;7.55;;
20283;SDS011;10301;50.832;4.080;2023-10-08T09:41:57;15.00;;;6.80;;
20283;SDS011;10301;50.832;4.080;2023-10-08T09:44:23;16.58;;;7.30;;
20283;SDS011;10301;50.832;4.080;2023-10-08T09:46:53;14.52;;;6.63;;
20283;SDS011;10301;50.832;4.080;2023-10-08T09:49:53;17.98;;;7.25;;
20283;SDS011;10301;50.832;4.080;2023-10-08T09:52:23;18.05;;;7.93;;
20283;SDS011;10301;50.832;4.080;2023-10-08T09:55:02;18.30;;;8.23;;
20283;SDS011;10301;50.832;4.080;2023-10-08T09:57:35;13.98;;;6.55;;
20283;SDS011;10301;50.832;4.080;2023-10-08T10:00:02;15.30;;;6.97;;
20283;SDS011;10301;50.832;4.080;2023-10-08T10:02:32;16.55;;;7.30;;
20283;SDS011;10301;50.832;4.080;2023-10-08T10:04:59;16.48;;;6.97;;
20283;SDS011;10301;50.832;4.080;2023-10-08T10:07:25;14.80;;;6.88;;
20283;SDS011;10301;50.832;4.080;2023-10-08T10:09:53;13.35;;;7.00;;
20283;SDS011;10301;50.832;4.080;2023-10-08T10:12:21;15.23;;;6.75;;
20283;SDS011;10301;50.832;4.080;2023-10-08T10:14:56;13.55;;;7.10;;
20283;SDS011;10301;50.832;4.080;2023-10-08T10:17:25;17.25;;;8.13;;
20283;SDS011;10301;50.832;4.080;2023-10-08T10:19:57;12.63;;;6.85;;
20283;SDS011;10301;50.832;4.080;2023-10-08T10:24:59;16.50;;;6.90;;
20283;SDS011;10301;50.832;4.080;2023-10-08T10:27:40;16.73;;;6.90;;
20283;SDS011;10301;50.832;4.080;2023-10-08T10:30:07;15.10;;;6.93;;
20283;SDS011;10301;50.832;4.080;2023-10-08T10:32:37;13.05;;;6.93;;
20283;SDS011;10301;50.832;4.080;2023-10-08T10:35:03;16.38;;;6.63;;
20283;SDS011;10301;50.832;4.080;2023-10-08T10:37:37;13.80;;;6.90;;
20283;SDS011;10301;50.832;4.080;2023-10-08T10:40:06;19.00;;;7.13;;
20283;SDS011;10301;50.832;4.080;2023-10-08T10:42:37;15.85;;;7.55;;
20283;SDS011;10301;50.832;4.080;2023-10-08T10:45:17;13.75;;;6.93;;
20283;SDS011;10301;50.832;4.080;2023-10-08T10:48:04;15.10;;;7.45;;
20283;SDS011;10301;50.832;4.080;2023-10-08T10:50:41;18.27;;;6.80;;
20283;SDS011;10301;50.832;4.080;2023-10-08T10:53:36;13.07;;;6.65;;
20283;SDS011;10301;50.832;4.080;2023-10-08T10:56:16;16.98;;;7.50;;
20283;SDS011;10301;50.832;4.080;2023-10-08T10:58:54;16.45;;;7.38;;
20283;SDS011;10301;50.832;4.080;2023-10-08T11:01:27;18.40;;;7.45;;
20283;SDS011;10301;50.832;4.080;2023-10-08T11:04:09;15.10;;;6.97;;
20283;SDS011;10301;50.832;4.080;2023-10-08T11:06:41;18.23;;;7.60;;
20283;SDS011;10301;50.832;4.080;2023-10-08T11:09:10;17.48;;;6.78;;
20283;SDS011;10301;50.832;4.080;2023-10-08T11:11:56;17.55;;;7.47;;
20283;SDS011;10301;50.832;4.080;2023-10-08T11:14:25;17.25;;;6.53;;
20283;SDS011;10301;50.832;4.080;2023-10-08T11:16:50;13.20;;;6.82;;
20283;SDS011;10301;50.832;4.080;2023-10-08T11:19:19;14.18;;;6.43;;
20283;SDS011;10301;50.832;4.080;2023-10-08T11:21:49;13.63;;;7.15;;
20283;SDS011;10301;50.832;4.080;2023-10-08T11:24:26;14.15;;;6.55;;
20283;SDS011;10301;50.832;4.080;2023-10-08T11:26:53;18.38;;;7.72;;
20283;SDS011;10301;50.832;4.080;2023-10-08T11:29:37;15.98;;;7.40;;
20283;SDS011;10301;50.832;4.080;2023-10-08T11:32:03;19.08;;;7.13;;
20283;SDS011;10301;50.832;4.080;2023-10-08T11:34:32;18.08;;;7.22;;
20283;SDS011;10301;50.832;4.080;2023-10-08T11:37:04;19.83;;;7.88;;
20283;SDS011;10301;50.832;4.080;2023-10-08T11:39:45;16.35;;;7.90;;
20283;SDS011;10301;50.832;4.080;2023-10-08T11:42:12;15.48;;;7.47;;
20283;SDS011;10301;50.832;4.080;2023-10-08T11:44:56;18.85;;;8.15;;
20283;SDS011;10301;50.832;4.080;2023-10-08T11:47:25;16.08;;;7.68;;
20283;SDS011;10301;50.832;4.080;2023-10-08T11:49:56;14.43;;;7.13;;
20283;SDS011;10301;50.832;4.080;2023-10-08T11:52:35;16.48;;;7.50;;
20283;SDS011;10301;50.832;4.080;2023-10-08T11:55:09;18.35;;;7.20;;
20283;SDS011;10301;50.832;4.080;2023-10-08T11:57:43;16.15;;;7.28;;
20283;SDS011;10301;50.832;4.080;2023-10-08T12:00:14;17.73;;;7.70;;
20283;SDS011;10301;50.832;4.080;2023-10-08T12:02:50;14.05;;;6.80;;
20283;SDS011;10301;50.832;4.080;2023-10-08T12:05:19;15.55;;;7.57;;
20283;SDS011;10301;50.832;4.080;2023-10-08T12:07:48;15.40;;;6.85;;
20283;SDS011;10301;50.832;4.080;2023-10-08T12:10:18;14.30;;;6.93;;
20283;SDS011;10301;50.832;4.080;2023-10-08T12:12:51;17.52;;;7.28;;
20283;SDS011;10301;50.832;4.080;2023-10-08T12:15:21;16.10;;;6.97;;
20283;SDS011;10301;50.832;4.080;2023-10-08T12:17:50;13.35;;;7.20;;
20283;SDS011;10301;50.832;4.080;2023-10-08T12:20:38;13.82;;;6.55;;
20283;SDS011;10301;50.832;4.080;2023-10-08T12:23:05;13.13;;;7.00;;
20283;SDS011;10301;50.832;4.080;2023-10-08T12:25:31;14.15;;;6.82;;
20283;SDS011;10301;50.832;4.080;2023-10-08T12:28:00;14.65;;;6.63;;
20283;SDS011;10301;50.832;4.080;2023-10-08T12:30:32;16.30;;;7.00;;
20283;SDS011;10301;50.832;4.080;2023-10-08T12:33:06;14.15;;;6.72;;
20283;SDS011;10301;50.832;4.080;2023-10-08T12:35:32;13.90;;;6.85;;
20283;SDS011;10301;50.832;4.080;2023-10-08T12:37:58;16.60;;;7.20;;
20283;SDS011;10301;50.832;4.080;2023-10-08T12:40:24;18.55;;;7.00;;
20283;SDS011;10301;50.832;4.080;2023-10-08T12:42:52;13.68;;;6.55;;
20283;SDS011;10301;50.832;4.080;2023-10-08T12:45:19;10.38;;;6.20;;
20283;SDS011;10301;50.832;4.080;2023-10-08T12:47:48;12.88;;;6.80;;
20283;SDS011;10301;50.832;4.080;2023-10-08T12:50:19;13.65;;;6.85;;
20283;SDS011;10301;50.832;4.080;2023-10-08T12:52:57;13.55;;;6.35;;
20283;SDS011;10301;50.832;4.080;2023-10-08T12:55:29;12.75;;;6.50;;
20283;SDS011;10301;50.832;4.080;2023-10-08T12:57:56;14.30;;;6.70;;
20283;SDS011;10301;50.832;4.080;2023-10-08T13:00:31;15.27;;;6.18;;
20283;SDS011;10301;50.832;4.080;2023-10-08T13:02:57;15.77;;;6.25;;
20283;SDS011;10301;50.832;4.080;2023-10-08T13:05:23;12.88;;;6.38;;
20283;SDS011;10301;50.832;4.080;2023-10-08T13:07:55;12.68;;;6.38;;
20283;SDS011;10301;50.832;4.080;2023-10-08T13:10:25;11.88;;;5.90;;
20283;SDS011;10301;50.832;4.080;2023-10-08T13:12:51;11.80;;;5.85;;
20283;SDS011;10301;50.832;4.080;2023-10-08T13:15:17;12.02;;;6.40;;
20283;SDS011;10301;50.832;4.080;2023-10-08T13:17:42;12.55;;;5.75;;
20283;SDS011;10301;50.832;4.080;2023-10-08T13:20:10;11.77;;;6.57;;
20283;SDS011;10301;50.832;4.080;2023-10-08T13:22:40;12.80;;;6.20;;
20283;SDS011;10301;50.832;4.080;2023-10-08T13:25:08;10.93;;;5.22;;
20283;SDS011;10301;50.832;4.080;2023-10-08T13:27:37;13.07;;;6.10;;
20283;SDS011;10301;50.832;4.080;2023-10-08T13:30:07;12.77;;;5.80;;
20283;SDS011;10301;50.832;4.080;2023-10-08T13:32:34;15.30;;;6.10;;
20283;SDS011;10301;50.832;4.080;2023-10-08T13:35:02;12.75;;;5.75;;
20283;SDS011;10301;50.832;4.080;2023-10-08T13:37:35;13.23;;;5.50;;
20283;SDS011;10301;50.832;4.080;2023-10-08T13:40:01;14.80;;;6.60;;
20283;SDS011;10301;50.832;4.080;2023-10-08T13:42:27;11.43;;;5.63;;
20283;SDS011;10301;50.832;4.080;2023-10-08T13:44:56;12.40;;;5.93;;
20283;SDS011;10301;50.832;4.080;2023-10-08T13:47:25;15.20;;;5.82;;
20283;SDS011;10301;50.832;4.080;2023-10-08T13:49:54;12.13;;;6.43;;
20283;SDS011;10301;50.832;4.080;2023-10-08T13:52:22;12.50;;;5.88;;
20283;SDS011;10301;50.832;4.080;2023-10-08T13:54:51;13.90;;;6.55;;
20283;SDS011;10301;50.832;4.080;2023-10-08T13:57:21;14.10;;;6.15;;
20283;SDS011;10301;50.832;4.080;2023-10-08T13:59:47;11.63;;;5.70;;
20283;SDS011;10301;50.832;4.080;2023-10-08T14:02:13;13.02;;;5.80;;
20283;SDS011;10301;50.832;4.080;2023-10-08T14:04:43;14.55;;;5.88;;
20283;SDS011;10301;50.832;4.080;2023-10-08T14:07:12;12.40;;;6.05;;
20283;SDS011;10301;50.832;4.080;2023-10-08T14:09:42;13.60;;;5.72;;
20283;SDS011;10301;50.832;4.080;2023-10-08T14:12:10;12.98;;;5.75;;
20283;SDS011;10301;50.832;4.080;2023-10-08T14:14:38;14.43;;;5.65;;
20283;SDS011;10301;50.832;4.080;2023-10-08T14:17:11;11.50;;;5.60;;
20283;SDS011;10301;50.832;4.080;2023-10-08T14:19:40;13.15;;;5.43;;
20283;SDS011;10301;50.832;4.080;2023-10-08T14:22:17;11.98;;;5.57;;
20283;SDS011;10301;50.832;4.080;2023-10-08T14:24:47;13.18;;;5.88;;
20283;SDS011;10301;50.832;4.080;2023-10-08T14:27:23;15.57;;;6.47;;
20283;SDS011;10301;50.832;4.080;2023-10-08T14:29:58;9.85;;;5.05;;
20283;SDS011;10301;50.832;4.080;2023-10-08T14:32:29;13.05;;;5.60;;
20283;SDS011;10301;50.832;4.080;2023-10-08T14:34:57;12.15;;;5.63;;
20283;SDS011;10301;50.832;4.080;2023-10-08T14:37:23;9.63;;;5.10;;
20283;SDS011;10301;50.832;4.080;2023-10-08T14:40:07;13.30;;;5.65;;
20283;SDS011;10301;50.832;4.080;2023-10-08T14:42:51;14.25;;;6.50;;
20283;SDS011;10301;50.832;4.080;2023-10-08T14:45:21;14.27;;;6.07;;
20283;SDS011;10301;50.832;4.080;2023-10-08T14:47:51;10.95;;;5.50;;
20283;SDS011;10301;50.832;4.080;2023-10-08T14:50:21;11.52;;;5.47;;
20283;SDS011;10301;50.832;4.080;2023-10-08T14:52:47;12.05;;;5.78;;
20283;SDS011;10301;50.832;4.080;2023-10-08T14:55:13;12.02;;;4.90;;
20283;SDS011;10301;50.832;4.080;2023-10-08T14:57:40;12.43;;;5.30;;
20283;SDS011;10301;50.832;4.080;2023-10-08T15:00:10;10.95;;;5.18;;
20283;SDS011;10301;50.832;4.080;2023-10-08T15:02:36;10.23;;;5.75;;
20283;SDS011;10301;50.832;4.080;2023-10-08T15:05:04;10.65;;;5.15;;
20283;SDS011;10301;50.832;4.080;2023-10-08T15:07:30;11.93;;;5.15;;
20283;SDS011;10301;50.832;4.080;2023-10-08T15:09:57;11.77;;;5.18;;
20283;SDS011;10301;50.832;4.080;2023-10-08T15:12:25;11.43;;;5.35;;